createdAt,value
2023-04-17T00:01:41.891Z,44.20
2023-04-17T00:04:11.243Z,45.20
2023-04-17T00:06:43.609Z,50.70
2023-04-17T00:09:12.719Z,42.70
2023-04-17T00:11:40.783Z,48.90
2023-04-17T00:14:08.616Z,48.60
2023-04-17T00:16:36.625Z,46.10
2023-04-17T00:19:07.046Z,45.40
2023-04-17T00:21:35.038Z,45.40
2023-04-17T00:24:03.014Z,44.60
2023-04-17T00:26:32.505Z,48.60
2023-04-17T00:29:02.116Z,46.30
2023-04-17T00:31:31.306Z,50.70
2023-04-17T00:34:01.527Z,46.80
2023-04-17T00:36:32.610Z,43.60
2023-04-17T00:39:00.656Z,45.70
2023-04-17T00:41:28.600Z,45.10
2023-04-17T00:43:56.523Z,44.70
2023-04-17T00:46:24.451Z,48.10
2023-04-17T00:48:52.308Z,44.00
2023-04-17T00:51:20.279Z,50.00
2023-04-17T00:53:48.344Z,38.10
2023-04-17T00:56:16.144Z,37.70
2023-04-17T00:58:44.017Z,43.30
2023-04-17T01:01:11.880Z,41.30
2023-04-17T01:03:40.217Z,38.60
2023-04-17T01:06:08.316Z,34.30
2023-04-17T01:08:42.684Z,37.00
2023-04-17T01:11:11.168Z,41.90
2023-04-17T01:13:49.953Z,36.80
2023-04-17T01:16:18.910Z,38.80
2023-04-17T01:18:48.459Z,39.70
2023-04-17T01:21:16.810Z,35.20
2023-04-17T01:23:52.122Z,37.00
2023-04-17T01:26:24.196Z,46.50
2023-04-17T01:28:57.644Z,38.50
2023-04-17T01:31:27.827Z,35.00
2023-04-17T01:33:56.113Z,44.10
2023-04-17T01:36:24.021Z,34.30
2023-04-17T01:38:51.926Z,35.50
2023-04-17T01:41:20.018Z,33.10
2023-04-17T01:43:48.027Z,35.90
2023-04-17T01:46:16.092Z,33.00
2023-04-17T01:48:44.113Z,32.00
2023-04-17T01:51:12.125Z,37.80
2023-04-17T01:53:40.259Z,35.80
2023-04-17T01:56:08.295Z,34.80
2023-04-17T01:58:36.308Z,32.70
2023-04-17T02:01:04.636Z,40.90
2023-04-17T02:03:33.282Z,51.50
2023-04-17T02:06:01.263Z,45.30
2023-04-17T02:08:29.818Z,42.10
2023-04-17T02:10:57.687Z,39.30
2023-04-17T02:13:25.497Z,38.70
2023-04-17T02:15:53.797Z,46.70
2023-04-17T02:18:22.183Z,43.00
2023-04-17T02:20:50.146Z,44.20
2023-04-17T02:23:17.979Z,47.60
2023-04-17T02:25:46.203Z,43.80
2023-04-17T02:28:14.016Z,45.20
2023-04-17T02:30:41.965Z,43.30
2023-04-17T02:33:10.036Z,46.80
2023-04-17T02:35:37.867Z,48.00
2023-04-17T02:38:05.727Z,45.00
2023-04-17T02:40:33.560Z,39.50
2023-04-17T02:43:01.521Z,40.10
2023-04-17T02:45:29.505Z,44.50
2023-04-17T02:47:58.246Z,42.70
2023-04-17T02:50:27.201Z,49.80
2023-04-17T02:52:55.226Z,52.20
2023-04-17T02:55:23.265Z,47.00
2023-04-17T02:57:51.217Z,39.10
2023-04-17T03:00:19.035Z,41.30
2023-04-17T03:02:47.013Z,48.00
2023-04-17T03:05:16.543Z,47.70
2023-04-17T03:07:44.585Z,45.80
2023-04-17T03:10:12.393Z,49.70
2023-04-17T03:12:40.410Z,44.50
2023-04-17T03:15:09.209Z,42.00
2023-04-17T03:17:37.039Z,43.10
2023-04-17T03:20:07.546Z,46.80
2023-04-17T03:22:36.666Z,45.40
2023-04-17T03:25:05.869Z,43.90
2023-04-17T03:27:33.855Z,42.30
2023-04-17T03:30:01.717Z,48.60
2023-04-17T03:32:29.555Z,46.40
2023-04-17T03:34:57.443Z,47.10
2023-04-17T03:37:25.272Z,48.60
2023-04-17T03:39:53.148Z,47.70
2023-04-17T03:42:21.110Z,44.70
2023-04-17T03:44:49.016Z,50.40
2023-04-17T03:47:17.018Z,47.10
2023-04-17T03:49:44.873Z,48.20
2023-04-17T03:52:12.802Z,43.20
2023-04-17T03:54:40.709Z,46.30
2023-04-17T03:57:08.580Z,48.30
2023-04-17T03:59:36.469Z,47.00
2023-04-17T04:02:04.557Z,54.30
2023-04-17T04:04:32.669Z,54.00
2023-04-17T04:07:01.652Z,49.20
2023-04-17T04:09:29.588Z,49.40
2023-04-17T04:11:58.285Z,49.40
2023-04-17T04:14:26.091Z,50.20
2023-04-17T04:16:54.177Z,53.10
2023-04-17T04:19:22.074Z,52.70
2023-04-17T04:21:50.245Z,57.40
2023-04-17T04:24:20.375Z,55.70
2023-04-17T04:26:49.732Z,54.00
2023-04-17T04:29:17.977Z,52.50
2023-04-17T04:31:51.097Z,58.90
2023-04-17T04:34:19.075Z,63.70
2023-04-17T04:36:50.231Z,49.80
2023-04-17T04:39:21.859Z,53.20
2023-04-17T04:41:51.361Z,47.80
2023-04-17T04:44:20.344Z,44.40
2023-04-17T04:46:48.247Z,44.60
2023-04-17T04:49:16.118Z,47.30
2023-04-17T04:51:44.035Z,47.30
2023-04-17T04:54:11.906Z,45.90
2023-04-17T04:56:40.171Z,44.20
2023-04-17T04:59:07.989Z,39.90
2023-04-17T05:01:36.068Z,41.30
2023-04-17T05:04:04.255Z,43.20
2023-04-17T05:06:32.487Z,46.70
2023-04-17T05:09:00.835Z,46.10
2023-04-17T05:11:28.614Z,52.60
2023-04-17T05:13:56.602Z,40.00
2023-04-17T05:16:24.514Z,47.70
2023-04-17T05:18:52.791Z,65.30
2023-04-17T05:21:21.081Z,58.90
2023-04-17T05:23:48.957Z,60.90
2023-04-17T05:26:16.737Z,58.20
2023-04-17T05:28:45.205Z,48.50
2023-04-17T05:31:13.631Z,53.90
2023-04-17T05:33:41.466Z,53.10
2023-04-17T05:36:09.660Z,47.00
2023-04-17T05:38:37.523Z,51.90
2023-04-17T05:41:07.563Z,46.00
2023-04-17T05:43:35.994Z,38.30
2023-04-17T05:46:04.014Z,40.60
2023-04-17T05:48:32.185Z,38.10
2023-04-17T05:51:00.108Z,33.30
2023-04-17T05:53:28.010Z,33.20
2023-04-17T05:55:55.793Z,35.10
2023-04-17T05:58:24.449Z,34.40
2023-04-17T06:00:52.813Z,33.50
2023-04-17T06:03:21.175Z,35.40
2023-04-17T06:05:49.249Z,36.90
2023-04-17T06:08:17.296Z,37.10
2023-04-17T06:10:45.982Z,32.70
2023-04-17T06:13:13.880Z,34.60
2023-04-17T06:15:41.704Z,33.80
2023-04-17T06:18:09.936Z,33.50
2023-04-17T06:20:40.036Z,33.40
2023-04-17T06:23:08.118Z,35.00
2023-04-17T06:25:35.892Z,38.00
2023-04-17T06:28:03.929Z,35.00
2023-04-17T06:30:31.749Z,33.80
2023-04-17T06:32:59.643Z,45.20
2023-04-17T06:35:27.583Z,41.80
2023-04-17T06:37:55.581Z,41.90
2023-04-17T06:40:23.414Z,38.80
2023-04-17T06:42:51.212Z,42.50
2023-04-17T06:45:19.210Z,42.80
2023-04-17T06:47:47.246Z,38.60
2023-04-17T06:50:16.813Z,41.90
2023-04-17T06:52:44.808Z,37.80
2023-04-17T06:55:12.655Z,45.20
2023-04-17T06:57:40.675Z,44.10
2023-04-17T07:00:09.975Z,46.20
2023-04-17T07:02:37.968Z,43.10
2023-04-17T07:05:07.327Z,46.70
2023-04-17T07:07:36.076Z,43.90
2023-04-17T07:10:04.814Z,43.30
2023-04-17T07:12:33.667Z,46.90
2023-04-17T07:15:01.620Z,49.80
2023-04-17T07:17:29.629Z,59.40
2023-04-17T07:19:57.418Z,52.90
2023-04-17T07:22:27.274Z,64.80
2023-04-17T07:24:55.316Z,48.60
2023-04-17T07:27:23.360Z,46.50
2023-04-17T07:29:54.740Z,58.50
2023-04-17T07:32:24.507Z,40.40
2023-04-17T07:34:53.026Z,43.20
2023-04-17T07:37:21.489Z,45.60
2023-04-17T07:39:50.543Z,45.60
2023-04-17T07:42:18.234Z,41.70
2023-04-17T07:44:47.277Z,45.30
2023-04-17T07:47:15.148Z,39.20
2023-04-17T07:49:46.603Z,47.60
2023-04-17T07:52:15.452Z,41.60
2023-04-17T07:54:43.223Z,46.00
2023-04-17T07:57:11.262Z,42.90
2023-04-17T07:59:39.122Z,46.50
2023-04-17T08:02:07.959Z,45.90
2023-04-17T08:04:36.107Z,45.30
2023-04-17T08:07:04.227Z,48.80
2023-04-17T08:09:32.090Z,46.90
2023-04-17T08:11:59.823Z,46.30
2023-04-17T08:14:27.619Z,45.50
2023-04-17T08:16:55.733Z,46.30
2023-04-17T08:19:23.611Z,42.00
2023-04-17T08:21:51.849Z,50.80
2023-04-17T08:24:20.118Z,45.60
2023-04-17T08:26:48.035Z,47.00
2023-04-17T08:29:16.160Z,50.50
2023-04-17T08:31:44.037Z,44.30
2023-04-17T08:34:14.751Z,47.80
2023-04-17T08:36:43.402Z,47.10
2023-04-17T08:40:34.547Z,46.10
2023-04-17T08:43:03.091Z,40.40
2023-04-17T08:45:31.525Z,48.80
2023-04-17T08:47:59.364Z,42.90
2023-04-17T08:50:27.332Z,41.60
2023-04-17T08:52:55.124Z,47.30
2023-04-17T08:55:25.530Z,44.10
2023-04-17T08:57:57.334Z,45.70
2023-04-17T09:00:39.874Z,37.60
2023-04-17T09:03:12.424Z,37.70
2023-04-17T09:08:24.175Z,38.20
2023-04-17T09:10:55.938Z,35.60
2023-04-17T09:13:25.764Z,32.20
2023-04-17T09:16:09.060Z,32.70
2023-04-17T09:18:38.139Z,30.20
2023-04-17T09:21:07.227Z,26.40
2023-04-17T09:23:56.299Z,24.70
2023-04-17T09:26:28.496Z,24.10
2023-04-17T09:29:12.172Z,27.30
2023-04-17T09:31:44.517Z,26.30
2023-04-17T09:34:13.532Z,32.30
2023-04-17T09:36:43.506Z,34.70
2023-04-17T09:39:24.372Z,36.30
2023-04-17T09:42:03.962Z,29.30
2023-04-17T09:44:32.405Z,27.30
2023-04-17T09:47:01.466Z,23.90
2023-04-17T09:49:43.022Z,26.30
2023-04-17T09:52:12.046Z,21.90
2023-04-17T09:54:40.095Z,32.40
2023-04-17T09:57:09.935Z,26.40
2023-04-17T09:59:45.068Z,24.00
2023-04-17T10:02:14.207Z,26.10
2023-04-17T10:04:47.438Z,26.00
2023-04-17T10:07:18.018Z,28.40
2023-04-17T10:09:47.025Z,33.20
2023-04-17T10:12:17.474Z,35.70
2023-04-17T10:14:48.392Z,34.30
2023-04-17T10:17:28.893Z,35.10
2023-04-17T10:20:20.310Z,32.20
2023-04-17T10:22:54.293Z,42.90
2023-04-17T10:25:27.498Z,34.10
2023-04-17T10:28:02.328Z,30.30
2023-04-17T10:30:57.157Z,33.30
2023-04-17T10:33:26.565Z,33.30
2023-04-17T10:35:55.045Z,30.20
2023-04-17T10:38:36.576Z,31.10
2023-04-17T10:41:09.382Z,30.20
2023-04-17T10:43:41.625Z,31.10
2023-04-17T10:46:13.616Z,30.80
2023-04-17T10:48:53.439Z,29.70
2023-04-17T10:51:21.773Z,34.90
2023-04-17T10:53:51.868Z,30.30
2023-04-17T10:56:39.955Z,30.20
2023-04-17T10:59:11.219Z,29.20
2023-04-17T11:01:48.392Z,29.90
2023-04-17T11:04:29.334Z,34.00
2023-04-17T11:06:57.487Z,29.80
2023-04-17T11:09:28.252Z,28.30
2023-04-17T11:12:01.810Z,28.10
2023-04-17T11:14:31.319Z,27.90
2023-04-17T11:16:59.355Z,29.20
2023-04-17T11:19:27.306Z,29.70
2023-04-17T11:22:01.471Z,31.50
2023-04-17T11:24:32.027Z,28.30
2023-04-17T11:27:01.465Z,29.90
2023-04-17T11:29:29.646Z,28.10
2023-04-17T11:31:58.822Z,29.40
2023-04-17T11:34:27.558Z,26.90
2023-04-17T11:36:58.483Z,30.20
2023-04-17T11:39:32.249Z,31.50
2023-04-17T11:42:02.434Z,31.90
2023-04-17T11:44:30.336Z,31.70
2023-04-17T11:47:01.325Z,33.20
2023-04-17T11:49:31.878Z,27.90
2023-04-17T11:52:02.136Z,28.90
2023-04-17T11:54:32.217Z,23.70
2023-04-17T11:57:05.715Z,32.90
2023-04-17T11:59:37.768Z,27.30
2023-04-17T12:02:08.439Z,40.20
2023-04-17T12:04:37.807Z,24.00
2023-04-17T12:07:07.523Z,33.50
2023-04-17T12:09:35.989Z,34.00
2023-04-17T12:12:07.219Z,24.20
2023-04-17T12:14:35.596Z,22.40
2023-04-17T12:17:03.403Z,24.80
2023-04-17T12:19:32.154Z,29.40
2023-04-17T12:22:00.448Z,29.50
2023-04-17T12:24:28.305Z,23.30
2023-04-17T12:26:58.688Z,26.90
2023-04-17T12:29:40.667Z,28.70
2023-04-17T12:32:12.610Z,25.20
2023-04-17T12:34:40.940Z,25.10
2023-04-17T12:37:09.808Z,24.50
2023-04-17T12:39:37.859Z,28.00
2023-04-17T12:42:06.302Z,20.90
2023-04-17T12:44:35.026Z,21.30
2023-04-17T12:47:03.539Z,19.20
2023-04-17T12:49:31.459Z,22.10
2023-04-17T12:52:01.061Z,16.30
2023-04-17T12:54:31.263Z,21.70
2023-04-17T12:56:59.907Z,20.20
2023-04-17T12:59:27.715Z,18.40
2023-04-17T13:01:55.706Z,17.20
2023-04-17T13:04:24.219Z,19.60
2023-04-17T13:06:52.422Z,16.60
2023-04-17T13:09:20.790Z,15.30
2023-04-17T13:11:48.666Z,14.20
2023-04-17T13:14:16.690Z,14.00
2023-04-17T13:16:45.721Z,15.60
2023-04-17T13:19:13.645Z,13.90
2023-04-17T13:21:43.882Z,18.70
2023-04-17T13:24:15.000Z,14.50
2023-04-17T13:26:43.491Z,13.80
2023-04-17T13:29:11.715Z,14.30
2023-04-17T13:31:39.896Z,18.00
2023-04-17T13:34:07.836Z,16.60
2023-04-17T13:36:35.809Z,14.40
2023-04-17T13:39:05.417Z,16.90
2023-04-17T13:41:33.359Z,14.80
2023-04-17T13:44:01.190Z,15.90
2023-04-17T13:46:29.621Z,16.30
2023-04-17T13:48:57.669Z,15.40
2023-04-17T13:51:26.953Z,14.80
2023-04-17T13:53:55.312Z,15.20
2023-04-17T13:56:23.544Z,20.10
2023-04-17T13:58:52.392Z,12.90
2023-04-17T14:01:20.715Z,16.70
2023-04-17T14:03:48.960Z,13.60
2023-04-17T14:06:17.923Z,14.40
2023-04-17T14:08:46.178Z,12.90
2023-04-17T14:11:17.321Z,14.00
2023-04-17T14:13:45.300Z,15.80
2023-04-17T14:16:13.366Z,13.70
2023-04-17T14:18:41.309Z,15.30
2023-04-17T14:21:09.178Z,18.00
2023-04-17T14:23:37.075Z,13.70
2023-04-17T14:26:08.026Z,15.10
2023-04-17T14:28:38.671Z,17.10
2023-04-17T14:34:13.987Z,12.10
2023-04-17T14:36:43.416Z,13.50
2023-04-17T14:39:12.022Z,15.30
2023-04-17T14:41:40.305Z,14.90
2023-04-17T14:44:08.215Z,15.20
2023-04-17T14:46:36.168Z,13.30
2023-04-17T14:49:03.979Z,14.60
2023-04-17T14:51:31.870Z,13.80
2023-04-17T14:53:59.789Z,13.10
2023-04-17T14:56:27.722Z,11.00
2023-04-17T14:58:55.552Z,13.20
2023-04-17T15:01:23.509Z,11.80
2023-04-17T15:03:51.555Z,12.60
2023-04-17T15:06:21.510Z,12.70
2023-04-17T15:08:49.335Z,13.90
2023-04-17T15:11:17.937Z,11.60
2023-04-17T15:13:46.010Z,13.00
2023-04-17T15:16:14.882Z,12.90
2023-04-17T15:18:43.742Z,11.80
2023-04-17T15:21:11.568Z,14.10
2023-04-17T15:23:39.384Z,18.30
2023-04-17T15:26:07.261Z,13.50
2023-04-17T15:28:35.931Z,15.80
2023-04-17T15:31:03.817Z,14.50
2023-04-17T15:33:31.929Z,29.10
2023-04-17T15:38:55.456Z,20.40
2023-04-17T15:41:24.127Z,21.60
2023-04-17T15:43:51.991Z,26.00
2023-04-17T15:46:19.938Z,15.00
2023-04-17T15:48:54.991Z,20.10
2023-04-17T15:51:35.182Z,18.10
2023-04-17T15:54:03.059Z,29.30
2023-04-17T15:56:31.064Z,19.00
2023-04-17T15:58:58.901Z,26.80
2023-04-17T16:01:26.733Z,17.90
2023-04-17T16:14:10.151Z,15.70
2023-04-17T16:16:37.919Z,18.10
2023-04-17T16:19:05.825Z,18.30
2023-04-17T16:21:33.621Z,16.30
2023-04-17T16:24:01.653Z,19.50
2023-04-17T16:26:30.642Z,13.80
2023-04-17T16:28:58.527Z,11.10
2023-04-17T16:31:27.954Z,11.40
2023-04-17T16:33:56.089Z,12.20
2023-04-17T16:36:23.862Z,15.50
2023-04-17T16:38:51.734Z,14.50
2023-04-17T16:41:20.524Z,17.00
2023-04-17T16:43:48.346Z,12.90
2023-04-17T16:46:23.843Z,12.60
2023-04-17T16:48:56.442Z,19.00
2023-04-17T16:51:24.430Z,19.00
2023-04-17T16:53:52.637Z,16.00
2023-04-17T16:56:21.150Z,16.10
2023-04-17T16:58:48.997Z,15.00
2023-04-17T17:01:17.005Z,27.10
2023-04-17T17:03:45.316Z,15.40
2023-04-17T17:06:13.385Z,25.60
2023-04-17T17:08:44.926Z,26.80
2023-04-17T17:11:18.017Z,29.50
2023-04-17T17:13:58.796Z,24.50
2023-04-17T17:16:31.570Z,24.10
2023-04-17T17:19:00.391Z,22.70
2023-04-17T17:21:29.125Z,74.10
2023-04-17T17:23:57.000Z,120.90
2023-04-17T17:26:25.568Z,47.70
2023-04-17T17:28:55.810Z,24.70
2023-04-17T17:31:26.912Z,21.80
2023-04-17T17:36:27.105Z,17.70
2023-04-17T17:38:56.608Z,12.60
2023-04-17T17:41:28.232Z,15.90
2023-04-17T17:43:59.295Z,22.40
2023-04-17T17:46:30.412Z,18.50
2023-04-17T17:49:01.061Z,16.30
2023-04-17T17:51:31.701Z,17.10
2023-04-17T17:53:59.930Z,22.20
2023-04-17T17:56:28.623Z,18.80
2023-04-17T17:58:56.533Z,15.30
2023-04-17T18:01:25.153Z,15.90
2023-04-17T18:03:53.647Z,17.20
2023-04-17T18:06:21.841Z,18.40
2023-04-17T18:08:49.986Z,22.10
2023-04-17T18:11:17.834Z,17.30
2023-04-17T18:13:45.781Z,19.50
2023-04-17T18:16:13.788Z,19.60
2023-04-17T18:18:41.744Z,23.90
2023-04-17T18:21:09.775Z,22.60
2023-04-17T18:23:37.701Z,21.40
2023-04-17T18:26:05.654Z,23.10
2023-04-17T18:28:35.835Z,18.10
2023-04-17T18:31:04.791Z,17.60
2023-04-17T18:33:32.667Z,21.10
2023-04-17T18:36:00.539Z,25.50
2023-04-17T18:38:28.412Z,23.30
2023-04-17T18:40:58.485Z,21.10
2023-04-17T18:43:26.876Z,20.20
2023-04-17T18:45:54.872Z,14.60
2023-04-17T18:48:24.216Z,16.70
2023-04-17T18:50:56.430Z,18.10
2023-04-17T18:53:55.189Z,14.90
2023-04-17T18:57:05.489Z,15.80
2023-04-17T19:02:52.260Z,32.70
2023-04-17T19:08:06.762Z,17.80
2023-04-17T19:10:34.884Z,20.20
2023-04-17T19:13:05.340Z,25.00
2023-04-17T19:15:33.767Z,20.30
2023-04-17T19:18:09.615Z,24.00
2023-04-17T19:20:42.388Z,27.60
2023-04-17T19:23:20.571Z,21.40
2023-04-17T19:25:54.961Z,21.40
2023-04-17T19:28:23.615Z,17.30
2023-04-17T19:30:51.610Z,16.10
2023-04-17T19:33:20.384Z,19.60
2023-04-17T19:35:50.706Z,18.30
2023-04-17T19:38:19.729Z,20.00
2023-04-17T19:41:19.625Z,19.70
2023-04-17T19:43:51.790Z,25.10
2023-04-17T19:46:21.942Z,20.20
2023-04-17T19:48:51.006Z,22.10
2023-04-17T19:51:18.990Z,19.40
2023-04-17T19:53:48.070Z,20.80
2023-04-17T19:56:16.309Z,17.90
2023-04-17T19:58:44.457Z,22.90
2023-04-17T20:01:12.777Z,23.60
2023-04-17T20:03:42.363Z,22.80
2023-04-17T20:06:10.495Z,25.90
2023-04-17T20:08:38.417Z,19.30
2023-04-17T20:11:06.563Z,14.50
2023-04-17T20:13:34.878Z,17.20
2023-04-17T20:16:02.796Z,19.20
2023-04-17T20:18:30.949Z,22.80
2023-04-17T20:21:01.170Z,17.10
2023-04-17T20:23:29.642Z,20.50
2023-04-17T20:25:57.482Z,22.50
2023-04-17T20:28:28.884Z,19.80
2023-04-17T20:30:56.857Z,16.70
2023-04-17T20:33:24.818Z,21.10
2023-04-17T20:35:52.648Z,18.10
2023-04-17T20:38:20.569Z,22.30
2023-04-17T20:40:48.390Z,16.00
2023-04-17T20:43:16.949Z,20.90
2023-04-17T20:45:44.951Z,18.20
2023-04-17T20:48:12.795Z,21.00
2023-04-17T20:50:40.874Z,19.40
2023-04-17T20:53:08.700Z,20.30
2023-04-17T20:55:38.133Z,18.10
2023-04-17T20:58:06.156Z,20.10
2023-04-17T21:00:34.713Z,24.40
2023-04-17T21:03:02.589Z,32.70
2023-04-17T21:05:30.638Z,27.20
2023-04-17T21:07:58.465Z,22.20
2023-04-17T21:10:26.161Z,22.30
2023-04-17T21:12:54.074Z,21.40
2023-04-17T21:15:21.859Z,21.70
2023-04-17T21:17:49.907Z,21.60
2023-04-17T21:20:17.770Z,18.50
2023-04-17T21:22:45.593Z,25.20
2023-04-17T21:25:13.494Z,19.80
2023-04-17T21:27:41.764Z,19.60
2023-04-17T21:30:10.923Z,19.50
2023-04-17T21:32:40.144Z,21.10
2023-04-17T21:35:09.404Z,17.60
2023-04-17T21:37:37.278Z,21.40
2023-04-17T21:40:05.971Z,18.80
2023-04-17T21:42:33.884Z,20.50
2023-04-17T21:45:01.679Z,19.20
2023-04-17T21:47:29.446Z,22.00
2023-04-17T21:49:57.265Z,18.40
2023-04-17T21:52:25.014Z,21.00
2023-04-17T21:54:52.848Z,19.40
2023-04-17T21:57:20.635Z,16.50
2023-04-17T21:59:48.560Z,20.10
2023-04-17T22:02:16.376Z,19.70
2023-04-17T22:04:44.219Z,20.10
2023-04-17T22:07:12.019Z,20.20
2023-04-17T22:09:39.861Z,20.20
2023-04-17T22:12:15.103Z,18.00
2023-04-17T22:14:42.826Z,18.90
2023-04-17T22:17:11.881Z,22.10
2023-04-17T22:19:39.603Z,18.40
2023-04-17T22:22:44.493Z,18.80
2023-04-17T22:25:12.393Z,20.10
2023-04-17T22:28:17.106Z,19.60
2023-04-17T22:31:03.605Z,19.10
2023-04-17T22:33:49.853Z,22.50
2023-04-17T22:37:13.056Z,19.90
2023-04-17T22:39:59.393Z,16.30
2023-04-17T22:42:45.454Z,17.10
2023-04-17T22:45:13.222Z,20.50
2023-04-17T22:47:41.211Z,18.10
2023-04-17T22:50:10.565Z,20.50
2023-04-17T22:52:38.453Z,18.00
2023-04-17T22:55:06.631Z,18.30
2023-04-17T22:57:34.346Z,20.00
2023-04-17T23:00:02.147Z,17.40
2023-04-17T23:02:30.202Z,16.30
2023-04-17T23:04:58.101Z,18.00
2023-04-17T23:07:25.897Z,18.10
2023-04-17T23:10:17.067Z,18.10
2023-04-17T23:12:45.026Z,18.30
2023-04-17T23:15:12.901Z,17.50
2023-04-17T23:17:40.734Z,20.50
2023-04-17T23:20:09.030Z,17.60
2023-04-17T23:22:36.914Z,18.80
2023-04-17T23:25:05.602Z,18.10
2023-04-17T23:27:33.393Z,20.90
2023-04-17T23:30:01.146Z,14.90
2023-04-17T23:32:28.988Z,18.10
2023-04-17T23:34:56.856Z,18.60
2023-04-17T23:37:24.716Z,19.20
2023-04-17T23:39:52.564Z,19.00
2023-04-17T23:42:20.514Z,18.90
2023-04-17T23:44:48.328Z,19.10
2023-04-17T23:47:16.216Z,19.00
2023-04-17T23:49:44.122Z,15.70
2023-04-17T23:52:12.017Z,20.50
2023-04-17T23:54:39.950Z,22.30
2023-04-17T23:57:07.757Z,19.00
2023-04-17T23:59:36.421Z,19.20
